createdAt,value
2023-11-09T00:01:37.485Z,66.60
2023-11-09T00:04:16.056Z,66.80
2023-11-09T00:06:44.295Z,66.70
2023-11-09T00:09:12.509Z,66.50
2023-11-09T00:11:44.982Z,66.50
2023-11-09T00:14:17.339Z,66.50
2023-11-09T00:16:47.814Z,66.60
2023-11-09T00:19:16.240Z,66.70
2023-11-09T00:21:45.779Z,66.60
2023-11-09T00:24:14.352Z,66.70
2023-11-09T00:26:46.947Z,66.70
2023-11-09T00:29:15.410Z,66.70
2023-11-09T00:31:43.986Z,66.80
2023-11-09T00:34:13.778Z,66.70
2023-11-09T00:36:42.174Z,66.90
2023-11-09T00:39:13.247Z,66.80
2023-11-09T00:41:41.547Z,66.80
2023-11-09T00:44:10.025Z,66.80
2023-11-09T00:46:41.504Z,66.90
2023-11-09T00:49:09.854Z,66.90
2023-11-09T00:51:39.723Z,66.90
2023-11-09T00:54:10.304Z,66.90
2023-11-09T00:56:38.499Z,66.90
2023-11-09T00:59:07.349Z,67.00
2023-11-09T01:01:35.570Z,67.10
2023-11-09T01:04:03.830Z,67.10
2023-11-09T01:06:33.168Z,67.00
2023-11-09T01:09:04.950Z,67.20
2023-11-09T01:11:34.212Z,67.00
2023-11-09T01:14:03.145Z,67.10
2023-11-09T01:16:31.454Z,67.10
2023-11-09T01:18:59.752Z,67.20
2023-11-09T01:21:28.093Z,67.10
2023-11-09T01:23:56.385Z,67.20
2023-11-09T01:26:26.251Z,67.30
2023-11-09T01:28:55.366Z,67.40
2023-11-09T01:31:25.702Z,67.30
2023-11-09T01:33:59.565Z,67.20
2023-11-09T01:36:33.029Z,67.20
2023-11-09T01:39:01.224Z,67.20
2023-11-09T01:41:30.892Z,67.10
2023-11-09T01:43:59.800Z,67.50
2023-11-09T01:46:29.275Z,67.20
2023-11-09T01:48:58.687Z,67.20
2023-11-09T01:51:31.164Z,67.30
2023-11-09T01:54:01.593Z,67.50
2023-11-09T01:56:33.500Z,67.40
2023-11-09T01:59:04.811Z,67.40
2023-11-09T02:01:35.067Z,67.40
2023-11-09T02:04:06.256Z,67.50
2023-11-09T02:06:35.486Z,67.50
2023-11-09T02:09:06.506Z,67.50
2023-11-09T02:11:36.066Z,67.60
2023-11-09T02:14:04.305Z,67.70
2023-11-09T02:16:33.531Z,67.80
2023-11-09T02:19:01.808Z,67.60
2023-11-09T02:21:30.838Z,67.70
2023-11-09T02:24:01.624Z,68.40
2023-11-09T02:26:33.778Z,67.80
2023-11-09T02:29:01.976Z,67.60
2023-11-09T02:31:32.071Z,67.60
2023-11-09T02:34:00.433Z,67.90
2023-11-09T02:36:29.225Z,67.70
2023-11-09T02:38:59.817Z,67.70
2023-11-09T02:41:28.105Z,67.80
2023-11-09T02:43:57.662Z,67.90
2023-11-09T02:46:25.880Z,67.80
2023-11-09T02:48:56.126Z,67.80
2023-11-09T02:51:26.450Z,67.90
2023-11-09T02:53:56.172Z,68.00
2023-11-09T02:56:24.371Z,68.10
2023-11-09T02:58:52.511Z,68.10
2023-11-09T03:01:22.229Z,68.20
2023-11-09T03:03:53.096Z,69.00
2023-11-09T03:06:21.349Z,68.40
2023-11-09T03:08:52.344Z,68.60
2023-11-09T03:11:20.675Z,68.50
2023-11-09T03:13:49.149Z,68.50
2023-11-09T03:16:17.550Z,68.40
2023-11-09T03:18:49.453Z,68.50
2023-11-09T03:21:18.281Z,68.70
2023-11-09T03:23:48.649Z,68.50
2023-11-09T03:26:19.196Z,68.70
2023-11-09T03:28:47.428Z,68.70
2023-11-09T03:31:15.753Z,68.60
2023-11-09T03:33:44.215Z,68.60
2023-11-09T03:36:32.907Z,68.60
2023-11-09T03:39:04.418Z,68.50
2023-11-09T03:41:32.789Z,68.60
2023-11-09T03:44:01.067Z,68.70
2023-11-09T03:46:29.356Z,68.70
2023-11-09T03:49:13.181Z,68.70
2023-11-09T03:51:42.919Z,68.80
2023-11-09T03:54:17.487Z,68.80
2023-11-09T03:56:45.820Z,68.70
2023-11-09T03:59:42.644Z,68.70
2023-11-09T04:02:30.819Z,68.50
2023-11-09T04:04:59.158Z,68.90
2023-11-09T04:07:32.026Z,68.90
2023-11-09T04:10:02.051Z,68.80
2023-11-09T04:12:30.301Z,68.80
2023-11-09T04:15:18.914Z,68.70
2023-11-09T04:21:42.049Z,68.70
2023-11-09T04:24:12.212Z,68.70
2023-11-09T04:26:40.539Z,68.50
2023-11-09T04:29:13.117Z,68.40
2023-11-09T04:31:43.752Z,68.70
2023-11-09T04:34:12.047Z,68.60
2023-11-09T04:36:45.480Z,68.40
2023-11-09T04:39:28.909Z,68.40
2023-11-09T04:41:58.177Z,69.20
2023-11-09T04:44:27.636Z,68.40
2023-11-09T04:46:57.016Z,68.50
2023-11-09T04:49:25.274Z,68.60
2023-11-09T04:51:55.925Z,68.40
2023-11-09T04:54:25.918Z,68.30
2023-11-09T04:57:25.716Z,68.40
2023-11-09T05:00:13.204Z,68.30
2023-11-09T05:02:58.958Z,68.40
2023-11-09T05:05:47.032Z,68.40
2023-11-09T05:08:15.254Z,68.40
2023-11-09T05:10:44.827Z,68.60
2023-11-09T05:13:15.599Z,68.50
2023-11-09T05:15:43.910Z,68.80
2023-11-09T05:18:12.184Z,68.50
2023-11-09T05:20:42.402Z,68.60
2023-11-09T05:23:17.756Z,68.50
2023-11-09T05:25:47.349Z,68.50
2023-11-09T05:28:17.724Z,68.50
2023-11-09T05:30:45.972Z,68.70
2023-11-09T05:33:14.285Z,68.50
2023-11-09T05:35:43.289Z,68.40
2023-11-09T05:38:12.129Z,68.40
2023-11-09T05:40:40.454Z,68.40
2023-11-09T05:43:14.917Z,68.40
2023-11-09T05:45:45.096Z,68.60
2023-11-09T05:48:13.831Z,68.50
2023-11-09T05:50:42.265Z,68.30
2023-11-09T05:53:10.445Z,68.20
2023-11-09T05:55:38.746Z,68.30
2023-11-09T05:58:10.097Z,68.20
2023-11-09T06:00:49.599Z,68.00
2023-11-09T06:03:50.678Z,68.20
2023-11-09T07:29:19.619Z,65.70
2023-11-09T07:31:47.896Z,65.70
2023-11-09T07:34:16.286Z,65.80
2023-11-09T07:36:46.859Z,65.60
2023-11-09T07:39:15.072Z,65.50
2023-11-09T07:41:44.010Z,65.40
2023-11-09T07:44:12.302Z,65.50
2023-11-09T07:46:42.123Z,65.20
2023-11-09T07:49:11.780Z,65.00
2023-11-09T07:51:40.117Z,64.70
2023-11-09T07:54:10.864Z,64.60
2023-11-09T07:56:39.083Z,64.30
2023-11-09T07:59:09.581Z,64.00
2023-11-09T08:01:38.197Z,63.70
2023-11-09T08:04:09.517Z,63.60
2023-11-09T08:06:39.049Z,63.30
2023-11-09T08:09:10.567Z,63.20
2023-11-09T08:11:39.732Z,62.90
2023-11-09T08:14:07.893Z,62.90
2023-11-09T08:16:36.744Z,62.70
2023-11-09T08:19:05.871Z,62.70
2023-11-09T08:21:37.288Z,62.50
2023-11-09T08:24:06.174Z,62.20
2023-11-09T08:26:35.134Z,62.10
2023-11-09T08:29:03.441Z,62.20
2023-11-09T08:31:34.802Z,62.10
2023-11-09T08:34:03.401Z,62.00
2023-11-09T08:36:32.053Z,62.00
2023-11-09T08:39:03.964Z,61.80
2023-11-09T08:41:32.357Z,61.80
2023-11-09T08:44:00.533Z,61.90
2023-11-09T08:46:29.456Z,61.80
2023-11-09T08:48:58.239Z,61.70
2023-11-09T08:51:26.421Z,61.80
2023-11-09T08:53:55.948Z,61.50
2023-11-09T08:56:26.714Z,61.70
2023-11-09T08:58:54.945Z,61.40
2023-11-09T09:01:23.671Z,61.10
2023-11-09T09:03:52.352Z,61.20
2023-11-09T09:06:21.614Z,60.70
2023-11-09T09:08:51.171Z,60.70
2023-11-09T09:11:20.197Z,60.60
2023-11-09T09:13:50.059Z,61.30
2023-11-09T09:16:18.857Z,60.50
2023-11-09T09:18:48.752Z,60.30
2023-11-09T09:21:17.861Z,60.00
2023-11-09T09:23:46.130Z,59.90
2023-11-09T09:26:15.905Z,60.00
2023-11-09T09:28:49.922Z,59.60
2023-11-09T09:31:24.745Z,59.20
2023-11-09T09:34:03.541Z,59.20
2023-11-09T09:36:35.108Z,58.90
2023-11-09T09:39:04.691Z,58.70
2023-11-09T09:41:43.445Z,58.40
2023-11-09T09:44:14.108Z,58.00
2023-11-09T09:46:46.127Z,58.00
2023-11-09T09:49:16.130Z,57.80
2023-11-09T09:51:45.271Z,57.70
2023-11-09T09:54:15.272Z,57.60
2023-11-09T09:56:43.671Z,57.70
2023-11-09T09:59:12.264Z,57.80
2023-11-09T10:01:49.194Z,57.40
2023-11-09T10:04:18.100Z,57.20
2023-11-09T10:06:47.239Z,57.20
2023-11-09T10:09:16.399Z,57.40
2023-11-09T10:11:45.108Z,56.90
2023-11-09T10:14:16.138Z,56.90
2023-11-09T10:16:49.666Z,56.70
2023-11-09T10:19:18.636Z,56.20
2023-11-09T10:21:47.951Z,55.80
2023-11-09T10:24:18.337Z,55.90
2023-11-09T10:26:48.654Z,56.00
2023-11-09T10:29:20.810Z,55.70
2023-11-09T10:31:50.723Z,55.70
2023-11-09T10:34:19.117Z,55.60
2023-11-09T10:36:47.830Z,55.80
2023-11-09T10:39:18.328Z,55.60
2023-11-09T10:41:54.882Z,55.20
2023-11-09T10:44:31.153Z,55.10
2023-11-09T10:47:04.808Z,54.60
2023-11-09T10:49:39.146Z,54.40
2023-11-09T10:52:10.870Z,54.50
2023-11-09T10:54:40.319Z,54.20
2023-11-09T10:57:11.064Z,53.30
2023-11-09T10:59:43.115Z,53.00
2023-11-09T11:02:21.342Z,52.90
2023-11-09T11:04:52.386Z,52.30
2023-11-09T11:07:23.357Z,52.00
2023-11-09T11:09:52.977Z,52.30
2023-11-09T11:12:22.626Z,51.40
2023-11-09T11:14:53.007Z,51.60
2023-11-09T11:17:41.982Z,51.60
2023-11-09T11:20:41.926Z,50.50
2023-11-09T11:23:46.473Z,50.80
2023-11-09T11:26:19.784Z,50.50
2023-11-09T11:28:48.354Z,50.80
2023-11-09T11:31:17.210Z,50.60
2023-11-09T11:33:48.669Z,50.00
2023-11-09T11:36:28.219Z,49.50
2023-11-09T11:39:22.234Z,49.10
2023-11-09T11:41:51.563Z,48.40
2023-11-09T11:44:26.555Z,48.10
2023-11-09T11:46:59.318Z,47.00
2023-11-09T11:49:31.270Z,46.70
2023-11-09T11:52:00.101Z,47.20
2023-11-09T11:54:35.107Z,47.20
2023-11-09T11:57:05.751Z,46.70
2023-11-09T11:59:41.078Z,46.80
2023-11-09T12:02:11.778Z,46.60
2023-11-09T12:04:48.478Z,47.00
2023-11-09T12:07:21.298Z,46.80
2023-11-09T12:09:50.975Z,46.70
2023-11-09T12:12:19.265Z,46.80
2023-11-09T12:14:50.763Z,46.80
2023-11-09T12:17:19.256Z,46.90
2023-11-09T12:25:03.609Z,46.50
2023-11-09T12:27:59.573Z,46.90
2023-11-09T12:30:30.209Z,47.20
2023-11-09T12:33:18.973Z,47.90
2023-11-09T12:36:58.964Z,47.70
2023-11-09T12:40:15.286Z,47.60
2023-11-09T12:42:46.668Z,47.40
2023-11-09T12:45:19.140Z,47.80
2023-11-09T12:47:48.385Z,48.10
2023-11-09T12:58:29.474Z,48.30
2023-11-09T13:21:26.224Z,49.00
2023-11-09T13:24:57.859Z,49.50
2023-11-09T14:09:54.236Z,49.40
2023-11-09T14:16:46.774Z,49.50
2023-11-09T14:19:22.046Z,49.80
2023-11-09T14:21:50.764Z,49.90
2023-11-09T14:24:24.025Z,50.00
2023-11-09T14:26:55.643Z,50.10
2023-11-09T14:29:25.335Z,50.70
2023-11-09T14:31:56.194Z,50.20
2023-11-09T14:34:26.201Z,50.50
2023-11-09T14:36:59.784Z,50.50
2023-11-09T14:39:39.177Z,50.40
2023-11-09T15:01:47.083Z,51.00
2023-11-09T15:11:23.082Z,51.70
2023-11-09T15:17:47.788Z,51.90
2023-11-09T15:20:22.652Z,52.50
2023-11-09T15:22:56.976Z,52.60
2023-11-09T15:25:25.984Z,52.80
2023-11-09T15:27:54.431Z,52.90
2023-11-09T15:30:26.245Z,53.00
2023-11-09T15:32:56.180Z,53.10
2023-11-09T15:35:24.819Z,53.40
2023-11-09T15:37:55.505Z,53.30
2023-11-09T15:41:09.514Z,53.60
2023-11-09T15:43:15.464Z,53.70
2023-11-09T15:45:44.224Z,53.70
2023-11-09T15:48:15.895Z,53.70
2023-11-09T15:51:41.360Z,53.90
2023-11-09T15:54:10.345Z,53.90
2023-11-09T15:56:40.167Z,54.10
2023-11-09T15:59:43.566Z,54.10
2023-11-09T16:02:12.418Z,54.10
2023-11-09T16:04:43.342Z,54.30
2023-11-09T16:07:14.779Z,54.40
2023-11-09T16:09:52.798Z,54.50
2023-11-09T16:12:28.687Z,54.50
2023-11-09T16:14:58.182Z,54.40
2023-11-09T16:17:27.397Z,54.60
2023-11-09T16:19:59.159Z,54.80
2023-11-09T16:22:28.486Z,55.00
2023-11-09T16:25:04.000Z,55.20
2023-11-09T16:27:36.198Z,55.10
2023-11-09T16:30:07.209Z,55.20
2023-11-09T16:32:35.641Z,55.20
2023-11-09T16:35:09.802Z,55.20
2023-11-09T16:37:40.796Z,55.30
2023-11-09T16:40:11.343Z,55.60
2023-11-09T16:42:40.773Z,55.50
2023-11-09T16:45:10.364Z,55.60
2023-11-09T16:47:40.278Z,55.90
2023-11-09T16:50:12.272Z,55.90
2023-11-09T16:52:40.770Z,55.90
2023-11-09T16:55:11.194Z,56.00
2023-11-09T16:57:43.733Z,56.00
2023-11-09T17:00:13.212Z,56.10
2023-11-09T17:02:41.772Z,56.20
2023-11-09T17:05:12.793Z,56.50
2023-11-09T17:07:44.179Z,56.40
2023-11-09T17:10:14.222Z,56.90
2023-11-09T17:12:43.497Z,56.50
2023-11-09T17:15:14.487Z,56.80
2023-11-09T17:17:43.834Z,57.00
2023-11-09T17:20:14.863Z,57.20
2023-11-09T17:22:44.984Z,57.40
2023-11-09T17:25:14.946Z,57.40
2023-11-09T17:27:43.767Z,57.30
2023-11-09T17:30:12.969Z,57.50
2023-11-09T17:32:43.734Z,57.60
2023-11-09T17:35:13.365Z,57.80
2023-11-09T17:37:41.596Z,58.00
2023-11-09T17:40:14.650Z,58.00
2023-11-09T17:42:43.252Z,58.10
2023-11-09T17:45:12.058Z,58.20
2023-11-09T17:47:43.711Z,58.20
2023-11-09T17:50:18.225Z,58.20
2023-11-09T17:52:48.397Z,58.30
2023-11-09T17:55:17.540Z,58.40
2023-11-09T17:57:48.236Z,58.40
2023-11-09T18:00:17.512Z,58.50
2023-11-09T18:02:47.727Z,58.70
2023-11-09T18:05:20.796Z,58.70
2023-11-09T18:07:58.363Z,58.90
2023-11-09T18:10:27.883Z,58.70
2023-11-09T18:13:11.035Z,58.80
2023-11-09T18:15:42.447Z,59.10
2023-11-09T18:18:11.003Z,59.00
2023-11-09T18:20:41.587Z,59.00
2023-11-09T18:23:10.035Z,59.10
2023-11-09T18:25:38.973Z,59.00
2023-11-09T18:28:10.134Z,59.10
2023-11-09T18:30:39.557Z,59.20
2023-11-09T18:33:07.940Z,59.40
2023-11-09T18:35:36.342Z,59.40
2023-11-09T18:38:05.941Z,59.50
2023-11-09T18:40:34.461Z,59.50
2023-11-09T18:43:02.813Z,59.80
2023-11-09T18:45:38.544Z,59.80
2023-11-09T18:48:11.305Z,59.70
2023-11-09T18:53:13.201Z,59.90
2023-11-09T18:55:41.999Z,59.80
2023-11-09T18:58:10.463Z,59.90
2023-11-09T19:00:38.839Z,59.90
2023-11-09T19:05:38.488Z,59.90
2023-11-09T19:08:10.335Z,60.00
2023-11-09T19:10:44.106Z,60.10
2023-11-09T19:13:13.029Z,60.40
2023-11-09T19:15:41.679Z,60.60
2023-11-09T19:18:10.809Z,60.90
2023-11-09T19:23:10.925Z,61.10
2023-11-09T19:25:40.239Z,61.60
2023-11-09T19:28:10.014Z,61.70
2023-11-09T19:30:38.366Z,62.70
2023-11-09T19:33:06.662Z,62.20
2023-11-09T19:35:35.141Z,62.40
2023-11-09T19:38:03.688Z,62.60
2023-11-09T19:40:32.312Z,62.80
2023-11-09T19:43:00.761Z,62.90
2023-11-09T19:45:33.445Z,63.20
2023-11-09T19:48:02.222Z,63.30
2023-11-09T19:51:07.751Z,63.50
2023-11-09T20:14:28.797Z,64.20
2023-11-09T20:16:59.764Z,64.50
2023-11-09T20:28:11.574Z,65.10
2023-11-09T21:09:05.856Z,67.10
2023-11-09T21:11:39.439Z,67.80
2023-11-09T21:14:09.338Z,67.80
2023-11-09T21:19:33.312Z,67.70
2023-11-09T21:22:01.679Z,67.90
2023-11-09T21:24:47.674Z,67.90
2023-11-09T21:27:16.388Z,68.20
2023-11-09T21:29:44.621Z,68.40
2023-11-09T21:32:14.980Z,68.30
2023-11-09T21:34:43.482Z,68.40
2023-11-09T21:37:14.951Z,68.50
2023-11-09T21:40:08.744Z,68.60
2023-11-09T21:42:40.089Z,68.60
2023-11-09T21:45:36.592Z,68.70
2023-11-09T21:48:05.251Z,68.40
2023-11-09T21:58:57.210Z,68.60
2023-11-09T22:01:27.269Z,68.40
2023-11-09T22:03:57.902Z,68.40
2023-11-09T22:06:26.249Z,68.70
2023-11-09T22:08:54.557Z,68.70
2023-11-09T22:11:26.294Z,68.70
2023-11-09T22:13:54.647Z,68.90
2023-11-09T22:16:23.264Z,69.00
2023-11-09T22:18:53.326Z,69.10
2023-11-09T22:21:25.717Z,69.10
2023-11-09T22:23:54.092Z,69.10
2023-11-09T22:26:23.622Z,69.20
2023-11-09T22:28:52.021Z,69.20
2023-11-09T22:31:20.318Z,69.20
2023-11-09T22:33:48.864Z,69.30
2023-11-09T22:36:19.225Z,69.10
2023-11-09T22:38:48.135Z,69.30
2023-11-09T22:41:16.747Z,69.40
2023-11-09T22:43:44.978Z,70.00
2023-11-09T22:46:14.144Z,69.30
2023-11-09T22:48:42.943Z,69.10
2023-11-09T22:51:11.647Z,69.10
2023-11-09T22:53:41.670Z,69.30
2023-11-09T22:56:10.030Z,69.30
2023-11-09T22:58:38.307Z,69.30
2023-11-09T23:01:06.693Z,69.30
2023-11-09T23:03:37.155Z,69.30
2023-11-09T23:06:06.266Z,69.20
2023-11-09T23:08:35.631Z,69.30
2023-11-09T23:11:05.952Z,69.20
2023-11-09T23:13:34.270Z,69.20
2023-11-09T23:16:02.595Z,69.00
2023-11-09T23:18:32.293Z,69.10
2023-11-09T23:21:02.883Z,69.10
2023-11-09T23:23:35.009Z,69.30
2023-11-09T23:26:05.406Z,69.00
2023-11-09T23:28:33.639Z,68.90
2023-11-09T23:31:02.092Z,68.80
2023-11-09T23:33:30.346Z,69.00
2023-11-09T23:35:58.576Z,68.80
2023-11-09T23:38:26.894Z,68.90
2023-11-09T23:40:57.273Z,68.90
2023-11-09T23:43:27.280Z,68.80
2023-11-09T23:45:55.933Z,68.80
2023-11-09T23:48:24.344Z,69.00
2023-11-09T23:50:52.856Z,68.80
2023-11-09T23:53:23.553Z,68.80
2023-11-09T23:55:51.868Z,69.00
2023-11-09T23:58:20.267Z,69.70
